createdAt,value
2018-08-17T00:01:28.969Z,99824.00
2018-08-17T00:03:56.572Z,99825.00
2018-08-17T00:06:24.195Z,99822.00
2018-08-17T00:08:52.586Z,99824.00
2018-08-17T00:11:20.725Z,99818.00
2018-08-17T00:13:48.516Z,99818.00
2018-08-17T00:16:16.108Z,99819.00
2018-08-17T00:18:43.711Z,99819.00
2018-08-17T00:21:11.518Z,99821.00
2018-08-17T00:23:39.096Z,99818.00
2018-08-17T00:26:06.713Z,99815.00
2018-08-17T00:28:34.681Z,99814.00
2018-08-17T00:31:02.281Z,99812.00
2018-08-17T00:33:29.947Z,99809.00
2018-08-17T00:35:57.778Z,99812.00
2018-08-17T00:38:25.611Z,99812.00
2018-08-17T00:40:53.299Z,99809.00
2018-08-17T00:43:20.896Z,99807.00
2018-08-17T00:45:49.106Z,99805.00
2018-08-17T00:48:16.709Z,99807.00
2018-08-17T00:50:44.336Z,99808.00
2018-08-17T00:53:12.740Z,99804.00
2018-08-17T00:55:40.575Z,99807.00
2018-08-17T00:58:08.213Z,99807.00
2018-08-17T01:00:35.793Z,99806.00
2018-08-17T01:03:03.728Z,99808.00
2018-08-17T01:05:31.325Z,99812.00
2018-08-17T01:07:58.917Z,99815.00
2018-08-17T01:10:26.764Z,99813.00
2018-08-17T01:12:54.320Z,99814.00
2018-08-17T01:15:22.248Z,99812.00
2018-08-17T01:17:50.036Z,99809.00
2018-08-17T01:20:17.612Z,99812.00
2018-08-17T01:22:45.157Z,99811.00
2018-08-17T01:25:12.777Z,99816.00
2018-08-17T01:27:41.220Z,99808.00
2018-08-17T01:30:09.257Z,99811.00
2018-08-17T01:32:37.865Z,99808.00
2018-08-17T01:35:05.816Z,99804.00
2018-08-17T01:37:33.427Z,99806.00
2018-08-17T01:40:01.049Z,99811.00
2018-08-17T01:42:28.613Z,99812.00
2018-08-17T01:44:56.401Z,99814.00
2018-08-17T01:47:23.948Z,99811.00
2018-08-17T01:49:51.545Z,99809.00
2018-08-17T01:52:19.429Z,99813.00
2018-08-17T01:54:48.217Z,99811.00
2018-08-17T01:57:15.795Z,99814.00
2018-08-17T01:59:43.541Z,99813.00
2018-08-17T02:02:11.111Z,99810.00
2018-08-17T02:04:38.647Z,99811.00
2018-08-17T02:07:06.544Z,99808.00
2018-08-17T02:09:34.104Z,99807.00
2018-08-17T02:12:01.646Z,99810.00
2018-08-17T02:14:29.115Z,99811.00
2018-08-17T02:16:56.645Z,99806.00
2018-08-17T02:19:24.202Z,99808.00
2018-08-17T02:21:52.029Z,99804.00
2018-08-17T02:24:19.575Z,99803.00
2018-08-17T02:26:47.081Z,99802.00
2018-08-17T02:29:14.937Z,99802.00
2018-08-17T02:31:42.469Z,99802.00
2018-08-17T02:34:10.034Z,99803.00
2018-08-17T02:36:37.909Z,99806.00
2018-08-17T02:39:06.453Z,99803.00
2018-08-17T02:41:34.059Z,99804.00
2018-08-17T02:44:01.674Z,99804.00
2018-08-17T02:46:29.172Z,99802.00
2018-08-17T02:48:56.730Z,99808.00
2018-08-17T02:51:24.569Z,99806.00
2018-08-17T02:53:52.162Z,99802.00
2018-08-17T02:56:19.985Z,99801.00
2018-08-17T02:58:47.546Z,99802.00
2018-08-17T03:01:15.069Z,99799.00
2018-08-17T03:03:42.896Z,99801.00
2018-08-17T03:06:10.547Z,99802.00
2018-08-17T03:08:38.051Z,99798.00
2018-08-17T03:11:06.036Z,99801.00
2018-08-17T03:13:33.604Z,99797.00
2018-08-17T03:16:01.986Z,99796.00
2018-08-17T03:18:29.841Z,99800.00
2018-08-17T03:20:57.396Z,99801.00
2018-08-17T03:23:24.925Z,99799.00
2018-08-17T03:25:52.829Z,99804.00
2018-08-17T03:28:20.339Z,99801.00
2018-08-17T03:30:48.433Z,99806.00
2018-08-17T03:33:16.238Z,99808.00
2018-08-17T03:35:43.761Z,99806.00
2018-08-17T03:38:11.324Z,99809.00
2018-08-17T03:40:39.126Z,99811.00
2018-08-17T03:43:07.457Z,99808.00
2018-08-17T03:45:35.013Z,99811.00
2018-08-17T03:48:02.837Z,99807.00
2018-08-17T03:50:30.437Z,99809.00
2018-08-17T03:52:58.001Z,99807.00
2018-08-17T03:55:25.851Z,99809.00
2018-08-17T03:57:53.386Z,99813.00
2018-08-17T04:00:20.945Z,99814.00
2018-08-17T04:02:48.987Z,99811.00
2018-08-17T04:05:16.533Z,99812.00
2018-08-17T04:07:44.112Z,99813.00
2018-08-17T04:10:11.852Z,99821.00
2018-08-17T04:12:39.435Z,99816.00
2018-08-17T04:15:07.908Z,99818.00
2018-08-17T04:17:35.681Z,99819.00
2018-08-17T04:20:04.060Z,99824.00
2018-08-17T04:22:31.657Z,99823.00
2018-08-17T04:24:59.181Z,99824.00
2018-08-17T04:27:26.973Z,99826.00
2018-08-17T04:29:54.567Z,99827.00
2018-08-17T04:32:22.688Z,99828.00
2018-08-17T04:34:50.569Z,99833.00
2018-08-17T04:37:18.229Z,99831.00
2018-08-17T04:39:45.733Z,99831.00
2018-08-17T04:42:13.601Z,99837.00
2018-08-17T04:44:41.181Z,99834.00
2018-08-17T04:47:08.824Z,99832.00
2018-08-17T04:49:36.576Z,99837.00
2018-08-17T04:52:04.128Z,99834.00
2018-08-17T04:54:31.676Z,99834.00
2018-08-17T04:56:59.385Z,99840.00
2018-08-17T04:59:26.992Z,99842.00
2018-08-17T05:01:54.585Z,99845.00
2018-08-17T05:04:22.580Z,99847.00
2018-08-17T05:06:50.141Z,99846.00
2018-08-17T05:09:17.752Z,99844.00
2018-08-17T05:11:45.476Z,99851.00
2018-08-17T05:14:15.129Z,99848.00
2018-08-17T05:17:08.518Z,99850.00
2018-08-17T05:19:36.493Z,99845.00
2018-08-17T05:22:04.064Z,99836.00
2018-08-17T05:24:32.028Z,99839.00
2018-08-17T05:26:59.572Z,99842.00
2018-08-17T05:29:27.140Z,99841.00
2018-08-17T05:31:54.736Z,99844.00
2018-08-17T05:34:22.281Z,99841.00
2018-08-17T05:36:50.208Z,99847.00
2018-08-17T05:39:17.806Z,99850.00
2018-08-17T05:41:45.247Z,99853.00
2018-08-17T05:44:13.000Z,99848.00
2018-08-17T05:46:40.557Z,99851.00
2018-08-17T05:49:08.421Z,99847.00
2018-08-17T05:51:35.972Z,99847.00
2018-08-17T05:54:04.016Z,99843.00
2018-08-17T05:56:31.618Z,99848.00
2018-08-17T05:58:59.137Z,99846.00
2018-08-17T06:01:27.092Z,99847.00
2018-08-17T06:03:54.620Z,99845.00
2018-08-17T06:06:22.312Z,99841.00
2018-08-17T06:08:50.385Z,99841.00
2018-08-17T06:11:17.985Z,99841.00
2018-08-17T06:13:45.435Z,99837.00
2018-08-17T06:16:13.719Z,99842.00
2018-08-17T06:18:41.540Z,99839.00
2018-08-17T06:21:09.289Z,99842.00
2018-08-17T06:23:37.121Z,99836.00
2018-08-17T06:26:04.662Z,99831.00
2018-08-17T06:28:32.225Z,99834.00
2018-08-17T06:31:00.105Z,99837.00
2018-08-17T06:33:27.665Z,99836.00
2018-08-17T06:35:55.231Z,99839.00
2018-08-17T06:38:23.006Z,99841.00
2018-08-17T06:40:50.876Z,99834.00
2018-08-17T06:43:19.462Z,99836.00
2018-08-17T06:45:47.156Z,99831.00
2018-08-17T06:48:14.757Z,99835.00
2018-08-17T06:50:42.733Z,99833.00
2018-08-17T06:53:10.290Z,99830.00
2018-08-17T06:55:37.849Z,99831.00
2018-08-17T06:58:06.165Z,99831.00
2018-08-17T07:00:33.747Z,99833.00
2018-08-17T07:03:01.714Z,99835.00
2018-08-17T07:05:29.528Z,99831.00
2018-08-17T07:07:57.075Z,99835.00
2018-08-17T07:10:24.849Z,99831.00
2018-08-17T07:12:52.376Z,99836.00
2018-08-17T07:15:19.917Z,99846.00
2018-08-17T07:17:47.737Z,99837.00
2018-08-17T07:20:45.751Z,99842.00
2018-08-17T07:23:13.293Z,99844.00
2018-08-17T07:25:40.833Z,99841.00
2018-08-17T07:28:08.780Z,99836.00
2018-08-17T07:30:36.281Z,99842.00
2018-08-17T07:33:03.865Z,99845.00
2018-08-17T07:35:31.468Z,99844.00
2018-08-17T07:37:58.958Z,99841.00
2018-08-17T07:40:30.000Z,99849.00
2018-08-17T07:42:57.646Z,99854.00
2018-08-17T07:45:25.240Z,99852.00
2018-08-17T07:47:53.154Z,99854.00
2018-08-17T07:50:21.168Z,99845.00
2018-08-17T07:52:48.987Z,99850.00
2018-08-17T07:55:17.034Z,99854.00
2018-08-17T07:57:44.613Z,99853.00
2018-08-17T08:00:12.724Z,99854.00
2018-08-17T08:02:40.547Z,99853.00
2018-08-17T08:05:09.654Z,99854.00
2018-08-17T08:07:37.361Z,99850.00
2018-08-17T08:10:05.152Z,99852.00
2018-08-17T08:12:32.939Z,99841.00
2018-08-17T08:15:00.493Z,99847.00
2018-08-17T08:17:28.260Z,99843.00
2018-08-17T08:20:13.507Z,99845.00
2018-08-17T08:22:42.088Z,99847.00
2018-08-17T08:25:09.649Z,99841.00
2018-08-17T08:27:39.541Z,99840.00
2018-08-17T08:30:07.917Z,99840.00
2018-08-17T08:32:35.676Z,99835.00
2018-08-17T08:35:03.583Z,99845.00
2018-08-17T08:37:31.512Z,99839.00
2018-08-17T08:39:59.091Z,99846.00
2018-08-17T08:42:26.859Z,99850.00
2018-08-17T08:44:54.429Z,99855.00
2018-08-17T08:47:21.977Z,99854.00
2018-08-17T08:49:49.680Z,99845.00
2018-08-17T08:52:17.357Z,99842.00
2018-08-17T08:54:44.859Z,99850.00
2018-08-17T08:57:12.456Z,99849.00
2018-08-17T08:59:39.993Z,99852.00
2018-08-17T09:02:08.104Z,99848.00
2018-08-17T09:04:35.623Z,99845.00
2018-08-17T09:07:03.218Z,99847.00
2018-08-17T09:09:30.772Z,99842.00
2018-08-17T09:11:58.313Z,99844.00
2018-08-17T09:14:26.047Z,99843.00
2018-08-17T09:16:53.876Z,99843.00
2018-08-17T09:19:21.453Z,99840.00
2018-08-17T09:21:49.376Z,99839.00
2018-08-17T09:24:16.925Z,99840.00
2018-08-17T09:26:44.456Z,99839.00
2018-08-17T09:29:12.224Z,99841.00
2018-08-17T09:31:39.721Z,99837.00
2018-08-17T09:34:07.571Z,99832.00
2018-08-17T09:36:35.121Z,99829.00
2018-08-17T09:39:04.235Z,99829.00
2018-08-17T09:41:32.477Z,99828.00
2018-08-17T09:44:00.285Z,99829.00
2018-08-17T09:46:28.716Z,99825.00
2018-08-17T09:48:56.322Z,99819.00
2018-08-17T09:51:24.721Z,99820.00
2018-08-17T09:53:52.344Z,99820.00
2018-08-17T09:56:22.062Z,99819.00
2018-08-17T09:58:49.976Z,99813.00
2018-08-17T10:01:23.784Z,99812.00
2018-08-17T10:03:57.796Z,99808.00
2018-08-17T10:06:31.240Z,99803.00
2018-08-17T10:09:05.205Z,99797.00
2018-08-17T10:11:32.826Z,99803.00
2018-08-17T10:14:00.438Z,99807.00
2018-08-17T10:16:28.332Z,99806.00
2018-08-17T10:18:56.034Z,99800.00
2018-08-17T10:21:23.859Z,99801.00
2018-08-17T10:23:51.416Z,99804.00
2018-08-17T10:26:18.921Z,99796.00
2018-08-17T10:28:46.740Z,99797.00
2018-08-17T10:31:17.470Z,99796.00
2018-08-17T10:33:47.132Z,99801.00
2018-08-17T10:36:14.711Z,99794.00
2018-08-17T10:38:42.260Z,99799.00
2018-08-17T10:41:10.485Z,99793.00
2018-08-17T10:43:38.376Z,99793.00
2018-08-17T10:46:06.077Z,99784.00
2018-08-17T10:48:34.110Z,99786.00
2018-08-17T10:51:01.681Z,99785.00
2018-08-17T10:53:35.805Z,99783.00
2018-08-17T10:56:03.982Z,99779.00
2018-08-17T10:58:33.336Z,99780.00
2018-08-17T11:01:01.106Z,99781.00
2018-08-17T11:03:28.792Z,99778.00
2018-08-17T11:05:56.317Z,99779.00
2018-08-17T11:08:23.913Z,99780.00
2018-08-17T11:10:52.008Z,99777.00
2018-08-17T11:13:19.657Z,99774.00
2018-08-17T11:15:47.209Z,99771.00
2018-08-17T11:18:15.184Z,99778.00
2018-08-17T11:20:42.735Z,99774.00
2018-08-17T11:23:10.319Z,99775.00
2018-08-17T11:25:38.326Z,99774.00
2018-08-17T11:28:09.158Z,99776.00
2018-08-17T11:30:36.705Z,99778.00
2018-08-17T11:33:04.607Z,99781.00
2018-08-17T11:35:32.161Z,99773.00
2018-08-17T11:37:59.689Z,99778.00
2018-08-17T11:40:27.619Z,99778.00
2018-08-17T11:42:55.177Z,99773.00
2018-08-17T11:45:24.284Z,99776.00
2018-08-17T11:47:52.662Z,99776.00
2018-08-17T11:50:23.223Z,99774.00
2018-08-17T11:52:58.565Z,99777.00
2018-08-17T11:55:28.437Z,99769.00
2018-08-17T11:57:55.992Z,99774.00
2018-08-17T12:00:24.096Z,99767.00
2018-08-17T12:02:51.960Z,99774.00
2018-08-17T12:05:19.509Z,99769.00
2018-08-17T12:07:47.552Z,99767.00
2018-08-17T12:10:15.477Z,99766.00
2018-08-17T12:12:43.836Z,99765.00
2018-08-17T12:15:12.093Z,99764.00
2018-08-17T12:17:39.912Z,99763.00
2018-08-17T12:20:07.504Z,99757.00
2018-08-17T12:22:35.265Z,99753.00
2018-08-17T12:25:03.047Z,99752.00
2018-08-17T12:27:30.841Z,99751.00
2018-08-17T12:29:58.398Z,99751.00
2018-08-17T12:32:26.914Z,99751.00
2018-08-17T12:34:54.402Z,99751.00
2018-08-17T12:37:22.012Z,99752.00
2018-08-17T12:39:50.140Z,99750.00
2018-08-17T12:42:17.905Z,99754.00
2018-08-17T12:44:45.649Z,99752.00
2018-08-17T12:47:13.296Z,99752.00
2018-08-17T12:49:40.990Z,99748.00
2018-08-17T12:52:09.352Z,99755.00
2018-08-17T12:54:37.101Z,99755.00
2018-08-17T12:57:05.280Z,99752.00
2018-08-17T12:59:33.460Z,99746.00
2018-08-17T13:02:01.520Z,99745.00
2018-08-17T13:04:29.243Z,99735.00
2018-08-17T13:06:57.294Z,99739.00
2018-08-17T13:09:25.124Z,99736.00
2018-08-17T13:11:57.769Z,99745.00
2018-08-17T13:14:25.772Z,99735.00
2018-08-17T13:16:54.092Z,99733.00
2018-08-17T13:19:21.637Z,99732.00
2018-08-17T13:21:49.414Z,99736.00
2018-08-17T13:24:16.965Z,99727.00
2018-08-17T13:26:44.786Z,99727.00
2018-08-17T13:29:12.806Z,99730.00
2018-08-17T13:31:40.289Z,99730.00
2018-08-17T13:34:07.890Z,99721.00
2018-08-17T13:36:35.605Z,99719.00
2018-08-17T13:39:07.192Z,99718.00
2018-08-17T13:41:34.957Z,99716.00
2018-08-17T13:44:41.724Z,99719.00
2018-08-17T13:47:09.272Z,99719.00
2018-08-17T13:49:36.973Z,99715.00
2018-08-17T13:52:04.888Z,99708.00
2018-08-17T13:54:32.772Z,99711.00
2018-08-17T13:57:00.863Z,99707.00
2018-08-17T13:59:28.634Z,99709.00
2018-08-17T14:01:56.156Z,99705.00
2018-08-17T14:04:23.720Z,99709.00
2018-08-17T14:06:51.506Z,99703.00
2018-08-17T14:09:20.940Z,99701.00
2018-08-17T14:11:48.457Z,99702.00
2018-08-17T14:14:16.272Z,99697.00
2018-08-17T14:16:43.783Z,99694.00
2018-08-17T14:19:11.353Z,99698.00
2018-08-17T14:21:39.146Z,99688.00
2018-08-17T14:24:06.698Z,99684.00
2018-08-17T14:26:34.500Z,99686.00
2018-08-17T14:29:02.044Z,99684.00
2018-08-17T14:31:29.577Z,99683.00
2018-08-17T14:33:57.278Z,99686.00
2018-08-17T14:36:24.822Z,99682.00
2018-08-17T14:38:52.397Z,99685.00
2018-08-17T14:41:20.276Z,99682.00
2018-08-17T14:43:47.769Z,99677.00
2018-08-17T14:46:15.389Z,99684.00
2018-08-17T14:48:43.189Z,99684.00
2018-08-17T14:51:10.925Z,99679.00
2018-08-17T14:53:38.573Z,99678.00
2018-08-17T14:56:06.780Z,99680.00
2018-08-17T14:58:34.345Z,99676.00
2018-08-17T15:01:01.910Z,99677.00
2018-08-17T15:03:30.001Z,99676.00
2018-08-17T15:05:57.524Z,99672.00
2018-08-17T15:08:25.045Z,99677.00
2018-08-17T15:10:52.585Z,99674.00
2018-08-17T15:13:20.124Z,99671.00
2018-08-17T15:15:47.625Z,99671.00
2018-08-17T15:18:15.393Z,99676.00
2018-08-17T15:20:42.905Z,99684.00
2018-08-17T15:23:10.424Z,99682.00
2018-08-17T15:25:38.517Z,99681.00
2018-08-17T15:28:06.065Z,99681.00
2018-08-17T15:30:34.527Z,99685.00
2018-08-17T15:33:02.093Z,99686.00
2018-08-17T15:35:29.897Z,99688.00
2018-08-17T15:37:57.468Z,99693.00
2018-08-17T15:40:25.009Z,99686.00
2018-08-17T15:42:54.605Z,99684.00
2018-08-17T15:45:22.290Z,99680.00
2018-08-17T15:47:49.863Z,99680.00
2018-08-17T15:50:18.820Z,99679.00
2018-08-17T15:52:46.625Z,99675.00
2018-08-17T15:55:14.553Z,99668.00
2018-08-17T15:57:42.107Z,99670.00
2018-08-17T16:00:13.791Z,99672.00
2018-08-17T16:02:41.321Z,99669.00
2018-08-17T16:05:08.892Z,99668.00
2018-08-17T16:07:36.764Z,99664.00
2018-08-17T16:10:05.528Z,99663.00
2018-08-17T16:12:33.044Z,99656.00
2018-08-17T16:15:00.856Z,99656.00
2018-08-17T16:17:28.382Z,99650.00
2018-08-17T16:19:55.889Z,99646.00
2018-08-17T16:22:23.663Z,99645.00
2018-08-17T16:24:51.290Z,99645.00
2018-08-17T16:27:18.789Z,99647.00
2018-08-17T16:29:46.648Z,99656.00
2018-08-17T16:32:14.193Z,99652.00
2018-08-17T16:34:41.781Z,99652.00
2018-08-17T16:37:09.649Z,99652.00
2018-08-17T16:39:43.944Z,99656.00
2018-08-17T16:42:19.904Z,99661.00
2018-08-17T16:44:48.040Z,99659.00
2018-08-17T16:47:15.970Z,99664.00
2018-08-17T16:49:43.852Z,99663.00
2018-08-17T16:52:11.492Z,99672.00
2018-08-17T16:54:39.124Z,99673.00
2018-08-17T16:57:06.584Z,99676.00
2018-08-17T16:59:34.457Z,99673.00
2018-08-17T17:02:10.541Z,99675.00
2018-08-17T17:04:41.356Z,99674.00
2018-08-17T17:07:08.868Z,99679.00
2018-08-17T17:09:36.878Z,99676.00
2018-08-17T17:12:11.176Z,99680.00
2018-08-17T17:14:38.918Z,99683.00
2018-08-17T17:17:06.505Z,99682.00
2018-08-17T17:19:34.021Z,99684.00
2018-08-17T17:22:02.130Z,99686.00
2018-08-17T17:24:29.684Z,99686.00
2018-08-17T17:26:57.377Z,99685.00
2018-08-17T17:29:26.393Z,99685.00
2018-08-17T17:31:53.919Z,99689.00
2018-08-17T17:34:21.888Z,99688.00
2018-08-17T17:36:49.441Z,99686.00
2018-08-17T17:39:17.053Z,99688.00
2018-08-17T17:41:44.940Z,99685.00
2018-08-17T17:44:12.543Z,99690.00
2018-08-17T17:46:40.635Z,99682.00
2018-08-17T17:49:08.902Z,99688.00
2018-08-17T17:51:36.708Z,99688.00
2018-08-17T17:54:04.297Z,99692.00
2018-08-17T17:56:32.013Z,99695.00
2018-08-17T17:59:04.692Z,99695.00
2018-08-17T18:01:32.263Z,99698.00
2018-08-17T18:03:59.862Z,99703.00
2018-08-17T18:06:31.765Z,99707.00
2018-08-17T18:09:00.524Z,99716.00
2018-08-17T18:11:28.170Z,99722.00
2018-08-17T18:13:56.408Z,99723.00
2018-08-17T18:16:24.081Z,99726.00
2018-08-17T18:18:51.845Z,99736.00
2018-08-17T18:21:19.876Z,99734.00
2018-08-17T18:23:56.215Z,99737.00
2018-08-17T18:26:26.364Z,99740.00
2018-08-17T18:28:54.073Z,99746.00
2018-08-17T18:31:21.761Z,99748.00
2018-08-17T18:33:49.587Z,99752.00
2018-08-17T18:36:17.157Z,99757.00
2018-08-17T18:38:44.917Z,99773.00
2018-08-17T18:41:13.343Z,99779.00
2018-08-17T18:43:41.116Z,99778.00
2018-08-17T18:46:09.148Z,99776.00
2018-08-17T18:48:37.019Z,99774.00
2018-08-17T18:51:05.186Z,99772.00
2018-08-17T18:53:33.922Z,99775.00
2018-08-17T18:56:02.354Z,99780.00
2018-08-17T18:58:30.047Z,99783.00
2018-08-17T19:00:58.351Z,99788.00
2018-08-17T19:03:26.500Z,99787.00
2018-08-17T19:05:54.155Z,99788.00
2018-08-17T19:08:21.890Z,99785.00
2018-08-17T19:10:49.560Z,99795.00
2018-08-17T19:13:18.272Z,99794.00
2018-08-17T19:15:55.726Z,99798.00
2018-08-17T19:19:02.881Z,99805.00
2018-08-17T19:22:09.536Z,99804.00
2018-08-17T19:25:08.075Z,99808.00
2018-08-17T19:27:36.927Z,99808.00
2018-08-17T19:30:28.327Z,99814.00
2018-08-17T19:32:57.424Z,99815.00
2018-08-17T19:35:25.003Z,99817.00
2018-08-17T19:37:53.012Z,99818.00
2018-08-17T19:40:21.316Z,99820.00
2018-08-17T19:42:48.971Z,99820.00
2018-08-17T19:45:17.323Z,99821.00
2018-08-17T19:47:45.601Z,99820.00
2018-08-17T19:50:13.349Z,99820.00
2018-08-17T19:52:41.177Z,99816.00
2018-08-17T19:55:08.767Z,99821.00
2018-08-17T19:57:37.219Z,99817.00
2018-08-17T20:00:08.630Z,99831.00
2018-08-17T20:02:36.379Z,99831.00
2018-08-17T20:05:04.414Z,99835.00
2018-08-17T20:07:33.666Z,99840.00
2018-08-17T20:10:02.333Z,99841.00
2018-08-17T20:12:30.233Z,99841.00
2018-08-17T20:14:58.184Z,99839.00
2018-08-17T20:17:26.250Z,99845.00
2018-08-17T20:19:53.916Z,99847.00
2018-08-17T20:22:23.112Z,99847.00
2018-08-17T20:24:51.063Z,99846.00
2018-08-17T20:27:21.672Z,99849.00
2018-08-17T20:29:49.257Z,99850.00
2018-08-17T20:32:16.916Z,99859.00
2018-08-17T20:34:47.156Z,99863.00
2018-08-17T20:37:15.760Z,99871.00
2018-08-17T20:39:44.894Z,99872.00
2018-08-17T20:42:12.854Z,99875.00
2018-08-17T20:44:40.787Z,99883.00
2018-08-17T20:47:09.406Z,99886.00
2018-08-17T20:49:37.294Z,99890.00
2018-08-17T20:52:05.073Z,99894.00
2018-08-17T20:54:33.517Z,99896.00
2018-08-17T20:57:02.126Z,99899.00
2018-08-17T20:59:29.969Z,99900.00
2018-08-17T21:01:58.691Z,99899.00
2018-08-17T21:04:26.385Z,99906.00
2018-08-17T21:06:54.218Z,99919.00
2018-08-17T21:09:21.600Z,99934.00
2018-08-17T21:11:49.368Z,99946.00
2018-08-17T21:14:17.211Z,99954.00
2018-08-17T21:16:44.862Z,99964.00
2018-08-17T21:19:12.477Z,99981.00
2018-08-17T21:21:40.238Z,99997.00
2018-08-17T21:24:07.885Z,100012.00
2018-08-17T21:26:35.667Z,100027.00
2018-08-17T21:29:04.087Z,100034.00
2018-08-17T21:31:32.120Z,100042.00
2018-08-17T21:33:59.680Z,100054.00
2018-08-17T21:36:27.240Z,100062.00
2018-08-17T21:39:17.328Z,100064.00
2018-08-17T21:41:46.118Z,100075.00
2018-08-17T21:44:15.581Z,100075.00
2018-08-17T21:46:49.464Z,100081.00
2018-08-17T21:49:17.535Z,100085.00
2018-08-17T21:51:45.077Z,100082.00
2018-08-17T21:54:12.964Z,100094.00
2018-08-17T21:56:40.556Z,100103.00
2018-08-17T21:59:08.228Z,100110.00
2018-08-17T22:01:36.064Z,100116.00
2018-08-17T22:04:03.699Z,100138.00
2018-08-17T22:06:32.380Z,100142.00
2018-08-17T22:08:59.925Z,100163.00
2018-08-17T22:11:32.956Z,100168.00
2018-08-17T22:14:06.578Z,100172.00
2018-08-17T22:16:47.585Z,100182.00
2018-08-17T22:19:32.184Z,100186.00
2018-08-17T22:21:59.952Z,100207.00
2018-08-17T22:24:27.571Z,100207.00
2018-08-17T22:26:55.399Z,100224.00
2018-08-17T22:29:23.009Z,100245.00
2018-08-17T22:31:50.591Z,100252.00
2018-08-17T22:34:18.764Z,100270.00
2018-08-17T22:36:47.206Z,100315.00
2018-08-17T22:39:14.792Z,100324.00
2018-08-17T22:41:42.666Z,100328.00
2018-08-17T22:44:15.945Z,100334.00
2018-08-17T22:46:44.416Z,100337.00
2018-08-17T22:49:11.963Z,100349.00
2018-08-17T22:51:39.846Z,100374.00
2018-08-17T22:54:07.409Z,100406.00
2018-08-17T22:56:34.969Z,100428.00
2018-08-17T22:59:02.749Z,100442.00
2018-08-17T23:01:30.933Z,100438.00
2018-08-17T23:03:58.533Z,100434.00
2018-08-17T23:06:26.335Z,100423.00
2018-08-17T23:08:53.848Z,100416.00
2018-08-17T23:11:34.004Z,100417.00
2018-08-17T23:14:18.486Z,100426.00
2018-08-17T23:16:46.716Z,100427.00
2018-08-17T23:19:14.314Z,100422.00
2018-08-17T23:21:41.905Z,100423.00
2018-08-17T23:24:10.434Z,100422.00
2018-08-17T23:26:38.085Z,100426.00
2018-08-17T23:29:06.338Z,100419.00
2018-08-17T23:31:34.136Z,100409.00
2018-08-17T23:34:01.681Z,100403.00
2018-08-17T23:36:29.312Z,100405.00
2018-08-17T23:38:57.134Z,100395.00
2018-08-17T23:41:24.747Z,100389.00
2018-08-17T23:43:52.414Z,100388.00
2018-08-17T23:46:19.971Z,100380.00
2018-08-17T23:48:47.548Z,100373.00
2018-08-17T23:51:15.241Z,100374.00
2018-08-17T23:53:42.882Z,100378.00
2018-08-17T23:56:10.540Z,100369.00
2018-08-17T23:58:38.397Z,100367.00
